createdAt,value
2019-05-25T00:00:31.530Z,47.88
2019-05-25T00:01:31.523Z,48.49
2019-05-25T00:02:31.537Z,48.18
2019-05-25T00:03:31.502Z,48.39
2019-05-25T00:04:31.503Z,48.79
2019-05-25T00:05:31.473Z,49.40
2019-05-25T00:06:31.465Z,48.90
2019-05-25T00:07:31.472Z,48.69
2019-05-25T00:08:31.446Z,49.19
2019-05-25T00:09:31.431Z,49.60
2019-05-25T00:10:31.418Z,48.79
2019-05-25T00:11:31.409Z,48.99
2019-05-25T00:12:31.409Z,49.62
2019-05-25T00:13:31.385Z,49.42
2019-05-25T00:14:31.373Z,49.62
2019-05-25T00:15:31.404Z,49.32
2019-05-25T00:16:31.351Z,49.62
2019-05-25T00:17:31.337Z,49.83
2019-05-25T00:18:31.325Z,49.83
2019-05-25T00:19:31.318Z,48.51
2019-05-25T00:20:31.303Z,49.65
2019-05-25T00:21:31.292Z,49.34
2019-05-25T00:22:31.300Z,49.42
2019-05-25T00:23:31.269Z,49.34
2019-05-25T00:24:31.265Z,49.34
2019-05-25T00:25:31.251Z,49.14
2019-05-25T00:26:31.257Z,49.14
2019-05-25T00:27:31.222Z,49.14
2019-05-25T00:28:31.211Z,49.34
2019-05-25T00:29:31.217Z,49.95
2019-05-25T00:30:31.189Z,49.44
2019-05-25T00:31:31.194Z,50.26
2019-05-25T00:32:31.169Z,49.55
2019-05-25T00:33:31.178Z,49.85
2019-05-25T00:34:31.156Z,50.46
2019-05-25T00:35:31.135Z,50.18
2019-05-25T00:36:31.131Z,49.67
2019-05-25T00:37:31.129Z,50.79
2019-05-25T00:38:31.099Z,50.68
2019-05-25T00:39:31.087Z,50.48
2019-05-25T00:40:31.075Z,50.38
2019-05-25T00:41:31.062Z,50.38
2019-05-25T00:42:31.069Z,50.40
2019-05-25T00:43:31.059Z,51.32
2019-05-25T00:44:31.029Z,51.72
2019-05-25T00:45:31.077Z,51.42
2019-05-25T00:46:31.005Z,51.72
2019-05-25T00:47:31.008Z,51.72
2019-05-25T00:48:30.999Z,51.42
2019-05-25T00:49:30.976Z,51.52
2019-05-25T00:50:30.966Z,51.54
2019-05-25T00:51:30.973Z,51.21
2019-05-25T00:52:30.939Z,52.53
2019-05-25T00:53:30.942Z,52.76
2019-05-25T00:54:30.918Z,52.36
2019-05-25T00:55:30.910Z,52.86
2019-05-25T00:56:30.918Z,53.47
2019-05-25T00:57:30.884Z,52.97
2019-05-25T00:58:30.875Z,53.06
2019-05-25T00:59:30.878Z,53.88
2019-05-25T01:00:30.853Z,54.21
2019-05-25T01:01:30.858Z,54.61
2019-05-25T01:02:30.866Z,54.41
2019-05-25T01:03:30.818Z,54.61
2019-05-25T01:04:30.807Z,54.92
2019-05-25T01:05:30.809Z,54.72
2019-05-25T01:06:30.783Z,55.93
2019-05-25T01:07:30.769Z,55.73
2019-05-25T01:08:30.765Z,56.26
2019-05-25T01:09:30.752Z,56.06
2019-05-25T01:10:30.737Z,56.16
2019-05-25T01:11:30.728Z,56.16
2019-05-25T01:12:30.713Z,56.70
2019-05-25T01:13:30.728Z,56.47
2019-05-25T01:14:30.710Z,56.77
2019-05-25T01:15:30.680Z,56.90
2019-05-25T01:16:30.679Z,56.87
2019-05-25T01:17:30.662Z,56.60
2019-05-25T01:18:30.652Z,57.41
2019-05-25T01:19:30.643Z,57.81
2019-05-25T01:20:30.621Z,57.21
2019-05-25T01:21:30.621Z,58.33
2019-05-25T01:22:30.619Z,58.02
2019-05-25T01:23:30.592Z,59.34
2019-05-25T01:24:43.254Z,59.27
2019-05-25T01:25:31.571Z,59.34
2019-05-25T01:26:30.558Z,59.03
2019-05-25T01:27:30.548Z,58.94
2019-05-25T01:28:30.531Z,59.57
2019-05-25T01:29:30.526Z,59.77
2019-05-25T01:30:30.515Z,60.49
2019-05-25T01:31:30.522Z,59.77
2019-05-25T01:32:30.494Z,60.49
2019-05-25T01:33:30.491Z,59.98
2019-05-25T01:34:30.481Z,60.49
2019-05-25T01:35:30.461Z,60.89
2019-05-25T01:36:30.448Z,60.18
2019-05-25T01:37:30.467Z,61.43
2019-05-25T01:38:30.416Z,61.53
2019-05-25T01:39:30.452Z,62.24
2019-05-25T01:40:30.405Z,62.45
2019-05-25T01:41:30.391Z,62.14
2019-05-25T01:42:30.400Z,61.63
2019-05-25T01:43:30.370Z,62.04
2019-05-25T01:44:30.407Z,61.83
2019-05-25T01:45:30.397Z,62.07
2019-05-25T01:46:30.358Z,61.74
2019-05-25T01:47:30.329Z,61.87
2019-05-25T01:48:30.320Z,62.24
2019-05-25T01:49:30.307Z,62.98
2019-05-25T01:50:30.299Z,62.27
2019-05-25T01:51:30.295Z,62.48
2019-05-25T01:52:30.274Z,62.88
2019-05-25T01:53:30.262Z,63.49
2019-05-25T01:54:30.257Z,63.49
2019-05-25T01:55:30.263Z,63.32
2019-05-25T01:56:30.249Z,63.73
2019-05-25T01:57:30.216Z,64.14
2019-05-25T01:58:30.202Z,64.23
2019-05-25T01:59:30.188Z,64.44
2019-05-25T02:00:30.194Z,64.34
2019-05-25T02:01:30.193Z,64.34
2019-05-25T02:02:30.158Z,64.54
2019-05-25T02:03:30.149Z,65.25
2019-05-25T02:04:30.141Z,64.95
2019-05-25T02:05:30.126Z,65.19
2019-05-25T02:06:30.132Z,65.56
2019-05-25T02:07:30.144Z,65.39
2019-05-25T02:08:30.095Z,65.89
2019-05-25T02:09:30.097Z,66.50
2019-05-25T02:10:30.070Z,66.41
2019-05-25T02:11:30.060Z,66.61
2019-05-25T02:12:30.061Z,66.10
2019-05-25T02:13:30.037Z,66.61
2019-05-25T02:14:30.027Z,67.02
2019-05-25T02:15:30.019Z,66.91
2019-05-25T02:16:30.006Z,67.32
2019-05-25T02:17:30.002Z,67.12
2019-05-25T02:18:29.993Z,67.22
2019-05-25T02:19:29.970Z,67.63
2019-05-25T02:20:29.979Z,67.52
2019-05-25T02:21:29.946Z,68.27
2019-05-25T02:22:29.942Z,67.96
2019-05-25T02:23:29.933Z,67.86
2019-05-25T02:24:29.952Z,68.07
2019-05-25T02:25:29.898Z,68.57
2019-05-25T02:26:29.890Z,68.88
2019-05-25T02:27:29.877Z,68.27
2019-05-25T02:28:29.874Z,68.61
2019-05-25T02:29:29.861Z,69.12
2019-05-25T02:30:29.849Z,69.09
2019-05-25T02:31:29.838Z,69.29
2019-05-25T02:32:29.823Z,69.19
2019-05-25T02:33:29.810Z,68.81
2019-05-25T02:34:29.805Z,69.42
2019-05-25T02:35:29.805Z,69.83
2019-05-25T02:36:29.776Z,69.83
2019-05-25T02:37:29.763Z,70.14
2019-05-25T02:38:29.753Z,69.83
2019-05-25T02:39:29.750Z,70.34
2019-05-25T02:40:29.737Z,70.44
2019-05-25T02:41:29.720Z,71.06
2019-05-25T02:42:29.714Z,71.29
2019-05-25T02:43:29.702Z,71.39
2019-05-25T02:44:29.684Z,71.46
2019-05-25T02:45:29.676Z,72.11
2019-05-25T02:46:29.680Z,72.92
2019-05-25T02:47:29.656Z,72.92
2019-05-25T02:48:29.645Z,73.23
2019-05-25T02:49:29.632Z,72.92
2019-05-25T02:50:29.616Z,73.23
2019-05-25T02:51:29.608Z,72.92
2019-05-25T02:52:29.622Z,73.23
2019-05-25T02:53:29.619Z,73.03
2019-05-25T02:54:29.578Z,73.23
2019-05-25T02:55:34.341Z,73.23
2019-05-25T02:56:30.560Z,73.23
2019-05-25T02:57:29.552Z,73.43
2019-05-25T02:58:29.526Z,72.55
2019-05-25T02:59:29.522Z,73.33
2019-05-25T03:00:29.504Z,73.27
2019-05-25T03:01:29.504Z,72.34
2019-05-25T03:02:29.487Z,72.45
2019-05-25T03:03:29.486Z,73.36
2019-05-25T03:04:29.461Z,73.47
2019-05-25T03:05:29.446Z,72.82
2019-05-25T03:06:29.464Z,72.96
2019-05-25T03:07:29.420Z,72.75
2019-05-25T03:08:29.426Z,73.36
2019-05-25T03:09:29.402Z,72.92
2019-05-25T03:10:29.396Z,73.03
2019-05-25T03:11:29.392Z,73.03
2019-05-25T03:12:29.365Z,73.03
2019-05-25T03:13:29.362Z,73.43
2019-05-25T03:14:29.363Z,73.54
2019-05-25T03:15:29.332Z,73.47
2019-05-25T03:16:29.332Z,73.77
2019-05-25T03:17:29.330Z,74.29
2019-05-25T03:18:29.303Z,73.98
2019-05-25T03:19:29.286Z,73.84
2019-05-25T03:20:29.275Z,73.77
2019-05-25T03:21:29.268Z,73.27
2019-05-25T03:22:29.266Z,73.43
2019-05-25T03:23:29.246Z,73.64
2019-05-25T03:24:29.252Z,73.33
2019-05-25T03:25:29.238Z,73.13
2019-05-25T03:26:29.208Z,73.03
2019-05-25T03:27:29.199Z,72.58
2019-05-25T03:28:29.185Z,72.62
2019-05-25T03:29:29.182Z,72.69
2019-05-25T03:30:29.271Z,72.28
2019-05-25T03:31:29.161Z,71.87
2019-05-25T03:32:29.144Z,71.43
2019-05-25T03:33:29.129Z,70.68
2019-05-25T03:34:29.114Z,69.93
2019-05-25T03:35:29.112Z,69.09
2019-05-25T03:36:29.118Z,68.01
2019-05-25T03:37:29.077Z,67.33
2019-05-25T03:38:29.072Z,67.10
2019-05-25T03:39:29.061Z,66.89
2019-05-25T03:40:29.049Z,66.99
2019-05-25T03:41:29.043Z,66.79
2019-05-25T03:42:29.026Z,66.55
2019-05-25T03:43:29.014Z,66.89
2019-05-25T03:44:29.010Z,66.89
2019-05-25T03:45:29.005Z,66.76
2019-05-25T03:46:28.979Z,66.79
2019-05-25T03:47:28.987Z,66.79
2019-05-25T03:48:28.961Z,67.02
2019-05-25T03:49:28.948Z,66.99
2019-05-25T03:50:28.940Z,67.43
2019-05-25T03:51:28.924Z,67.74
2019-05-25T03:52:28.924Z,68.44
2019-05-25T03:53:28.932Z,68.24
2019-05-25T03:54:28.890Z,68.48
2019-05-25T03:55:28.893Z,68.88
2019-05-25T03:56:28.874Z,68.96
2019-05-25T03:57:28.865Z,68.55
2019-05-25T03:58:28.858Z,69.09
2019-05-25T03:59:28.834Z,69.29
2019-05-25T04:00:28.828Z,69.93
2019-05-25T04:01:28.814Z,69.56
2019-05-25T04:02:28.827Z,69.93
2019-05-25T04:03:28.796Z,70.04
2019-05-25T04:04:28.794Z,68.58
2019-05-25T04:05:28.770Z,69.06
2019-05-25T04:06:28.765Z,68.85
2019-05-25T04:07:28.749Z,68.55
2019-05-25T04:08:28.736Z,68.32
2019-05-25T04:09:28.731Z,67.71
2019-05-25T04:10:28.710Z,68.41
2019-05-25T04:11:28.708Z,68.44
2019-05-25T04:12:28.697Z,68.96
2019-05-25T04:13:28.679Z,69.19
2019-05-25T04:14:28.672Z,69.29
2019-05-25T04:15:28.660Z,68.96
2019-05-25T04:16:28.646Z,68.21
2019-05-25T04:17:28.636Z,67.60
2019-05-25T04:18:28.640Z,66.96
2019-05-25T04:19:28.612Z,66.55
2019-05-25T04:20:28.608Z,66.29
2019-05-25T04:21:28.604Z,63.92
2019-05-25T04:22:28.588Z,63.89
2019-05-25T04:23:28.576Z,62.95
2019-05-25T04:24:28.577Z,62.45
2019-05-25T04:25:28.548Z,61.91
2019-05-25T04:26:28.551Z,61.30
2019-05-25T04:27:28.524Z,61.14
2019-05-25T04:28:28.517Z,59.80
2019-05-25T04:29:28.502Z,58.96
2019-05-25T04:30:28.508Z,57.79
2019-05-25T04:31:28.488Z,56.98
2019-05-25T04:32:28.491Z,56.88
2019-05-25T04:33:28.456Z,56.78
2019-05-25T04:34:28.444Z,57.49
2019-05-25T04:35:28.433Z,58.25
2019-05-25T04:36:28.442Z,58.07
2019-05-25T04:37:28.421Z,58.48
2019-05-25T04:38:28.498Z,58.25
2019-05-25T04:39:28.390Z,58.89
2019-05-25T04:40:28.378Z,58.58
2019-05-25T04:41:28.379Z,59.19
2019-05-25T04:42:28.354Z,59.42
2019-05-25T04:43:28.353Z,59.32
2019-05-25T04:44:28.333Z,59.92
2019-05-25T04:45:28.320Z,58.05
2019-05-25T04:46:28.315Z,56.56
2019-05-25T04:47:28.315Z,54.68
2019-05-25T04:48:28.294Z,53.92
2019-05-25T04:49:28.316Z,52.62
2019-05-25T04:50:28.264Z,52.49
2019-05-25T04:51:28.250Z,53.00
2019-05-25T04:52:28.247Z,52.49
2019-05-25T04:53:28.234Z,52.80
2019-05-25T04:54:28.229Z,52.37
2019-05-25T04:55:28.205Z,51.54
2019-05-25T04:56:38.788Z,51.31
2019-05-25T04:57:29.186Z,49.98
2019-05-25T04:58:28.195Z,49.55
2019-05-25T04:59:28.185Z,48.93
2019-05-25T05:00:28.163Z,48.12
2019-05-25T05:01:28.138Z,48.75
2019-05-25T05:02:28.128Z,48.43
2019-05-25T05:03:28.121Z,49.02
2019-05-25T05:04:28.106Z,48.32
2019-05-25T05:05:28.094Z,48.10
2019-05-25T05:06:28.111Z,47.55
2019-05-25T05:07:28.070Z,47.15
2019-05-25T05:08:28.063Z,46.83
2019-05-25T05:09:28.058Z,46.65
2019-05-25T05:10:28.040Z,46.85
2019-05-25T05:11:28.038Z,46.04
2019-05-25T05:12:28.031Z,47.17
2019-05-25T05:13:28.006Z,46.97
2019-05-25T05:14:27.990Z,47.17
2019-05-25T05:15:27.982Z,47.90
2019-05-25T05:16:27.974Z,48.40
2019-05-25T05:17:27.981Z,48.63
2019-05-25T05:18:27.948Z,48.55
2019-05-25T05:19:27.939Z,49.33
2019-05-25T05:20:27.934Z,48.80
2019-05-25T05:21:27.921Z,47.65
2019-05-25T05:22:27.950Z,46.85
2019-05-25T05:23:27.986Z,46.30
2019-05-25T05:24:27.875Z,45.88
2019-05-25T05:25:28.310Z,46.12
2019-05-25T05:26:28.094Z,45.22
2019-05-25T05:27:27.850Z,46.11
2019-05-25T05:28:27.850Z,46.00
2019-05-25T05:29:27.858Z,45.98
2019-05-25T05:30:27.826Z,44.98
2019-05-25T05:31:27.803Z,43.84
2019-05-25T05:32:28.154Z,44.71
2019-05-25T05:33:27.787Z,43.82
2019-05-25T05:34:27.805Z,44.01
2019-05-25T05:35:27.758Z,44.09
2019-05-25T05:36:27.749Z,43.62
2019-05-25T05:37:27.746Z,43.71
2019-05-25T05:38:27.735Z,44.96
2019-05-25T05:39:27.719Z,45.84
2019-05-25T05:40:27.747Z,48.02
2019-05-25T05:41:30.660Z,50.53
2019-05-25T05:42:27.677Z,52.82
2019-05-25T05:43:27.666Z,53.50
2019-05-25T05:44:27.653Z,55.85
2019-05-25T05:45:27.680Z,55.98
2019-05-25T05:46:27.630Z,56.48
2019-05-25T05:47:27.622Z,56.81
2019-05-25T05:48:27.685Z,57.11
2019-05-25T05:49:27.601Z,56.94
2019-05-25T05:50:27.604Z,58.28
2019-05-25T05:51:27.593Z,59.12
2019-05-25T05:52:27.563Z,59.05
2019-05-25T05:53:27.552Z,59.78
2019-05-25T05:54:27.548Z,59.68
2019-05-25T05:55:27.540Z,59.88
2019-05-25T05:56:27.536Z,61.20
2019-05-25T05:57:27.539Z,61.20
2019-05-25T05:58:27.495Z,61.33
2019-05-25T05:59:27.489Z,60.01
2019-05-25T06:00:27.579Z,60.24
2019-05-25T06:01:27.481Z,60.24
2019-05-25T06:02:27.471Z,59.94
2019-05-25T06:03:27.458Z,60.55
2019-05-25T06:04:27.451Z,61.36
2019-05-25T06:05:27.500Z,60.75
2019-05-25T06:06:27.425Z,61.87
2019-05-25T06:07:27.678Z,61.16
2019-05-25T06:08:27.381Z,61.36
2019-05-25T06:09:27.377Z,61.36
2019-05-25T06:10:27.363Z,61.05
2019-05-25T06:11:27.345Z,60.95
2019-05-25T06:12:27.351Z,60.85
2019-05-25T06:13:27.341Z,60.75
2019-05-25T06:14:27.529Z,62.10
2019-05-25T06:15:27.391Z,62.30
2019-05-25T06:16:27.295Z,62.10
2019-05-25T06:17:27.318Z,62.02
2019-05-25T06:18:27.410Z,61.99
2019-05-25T06:19:27.283Z,61.76
2019-05-25T06:20:27.249Z,61.46
2019-05-25T06:21:27.232Z,61.25
2019-05-25T06:22:27.224Z,61.46
2019-05-25T06:23:27.209Z,61.25
2019-05-25T06:24:27.218Z,61.05
2019-05-25T06:25:27.210Z,61.33
2019-05-25T06:26:27.178Z,60.95
2019-05-25T06:27:28.052Z,61.56
2019-05-25T06:28:27.159Z,60.95
2019-05-25T06:29:27.217Z,61.59
2019-05-25T06:30:27.135Z,61.79
2019-05-25T06:31:27.119Z,61.99
2019-05-25T06:32:27.109Z,61.59
2019-05-25T06:33:27.096Z,61.69
2019-05-25T06:34:27.096Z,61.49
2019-05-25T06:35:27.099Z,62.37
2019-05-25T06:36:27.236Z,61.25
2019-05-25T06:37:27.077Z,61.23
2019-05-25T06:38:27.040Z,61.43
2019-05-25T06:39:27.033Z,60.11
2019-05-25T06:40:27.021Z,60.19
2019-05-25T06:41:27.031Z,59.78
2019-05-25T06:42:27.000Z,59.58
2019-05-25T06:43:26.981Z,59.78
2019-05-25T06:44:26.972Z,59.88
2019-05-25T06:45:26.961Z,59.78
2019-05-25T06:46:26.967Z,59.58
2019-05-25T06:47:26.961Z,60.08
2019-05-25T06:48:26.964Z,59.68
2019-05-25T06:49:26.957Z,59.45
2019-05-25T06:50:26.901Z,59.65
2019-05-25T06:51:26.914Z,59.55
2019-05-25T06:52:26.898Z,59.14
2019-05-25T06:53:26.879Z,59.01
2019-05-25T06:54:26.866Z,58.20
2019-05-25T06:55:26.847Z,57.50
2019-05-25T06:56:26.831Z,58.11
2019-05-25T06:57:40.196Z,58.64
2019-05-25T06:58:27.861Z,58.84
2019-05-25T06:59:26.911Z,59.07
2019-05-25T07:00:26.792Z,59.07
2019-05-25T07:01:26.777Z,59.78
2019-05-25T07:02:26.886Z,59.17
2019-05-25T07:03:26.763Z,59.68
2019-05-25T07:04:26.776Z,60.08
2019-05-25T07:05:26.734Z,59.58
2019-05-25T07:06:26.737Z,59.88
2019-05-25T07:07:26.710Z,59.88
2019-05-25T07:08:26.702Z,59.85
2019-05-25T07:09:26.690Z,59.45
2019-05-25T07:10:26.671Z,59.65
2019-05-25T07:11:26.671Z,59.65
2019-05-25T07:12:26.656Z,59.99
2019-05-25T07:13:28.604Z,59.58
2019-05-25T07:14:26.655Z,60.19
2019-05-25T07:15:26.765Z,60.69
2019-05-25T07:16:26.653Z,61.10
2019-05-25T07:17:26.596Z,61.20
2019-05-25T07:18:26.588Z,61.20
2019-05-25T07:19:26.590Z,61.30
2019-05-25T07:20:26.577Z,61.80
2019-05-25T07:21:26.709Z,60.66
2019-05-25T07:22:26.545Z,60.16
2019-05-25T07:23:26.535Z,59.55
2019-05-25T07:24:26.524Z,59.55
2019-05-25T07:25:26.826Z,59.75
2019-05-25T07:26:26.493Z,59.55
2019-05-25T07:27:26.492Z,59.85
2019-05-25T07:28:26.475Z,60.06
2019-05-25T07:29:26.462Z,59.68
2019-05-25T07:30:26.460Z,60.06
2019-05-25T07:31:26.440Z,59.75
2019-05-25T07:32:26.450Z,60.63
2019-05-25T07:33:26.421Z,59.32
2019-05-25T07:34:26.408Z,59.52
2019-05-25T07:35:26.397Z,59.52
2019-05-25T07:36:26.402Z,59.22
2019-05-25T07:37:26.390Z,59.01
2019-05-25T07:38:26.358Z,59.22
2019-05-25T07:39:26.532Z,60.36
2019-05-25T07:40:26.525Z,61.51
2019-05-25T07:41:26.326Z,61.83
2019-05-25T07:42:26.359Z,62.65
2019-05-25T07:43:26.509Z,62.68
2019-05-25T07:44:26.296Z,62.65
2019-05-25T07:45:26.283Z,62.07
2019-05-25T07:46:26.538Z,62.98
2019-05-25T07:47:26.259Z,62.75
2019-05-25T07:48:26.453Z,62.45
2019-05-25T07:49:26.251Z,63.08
2019-05-25T07:50:26.237Z,63.18
2019-05-25T07:51:26.209Z,63.69
2019-05-25T07:52:26.213Z,63.18
2019-05-25T07:53:26.202Z,63.46
2019-05-25T07:54:26.418Z,63.49
2019-05-25T07:55:26.177Z,63.06
2019-05-25T07:56:26.181Z,63.15
2019-05-25T07:57:28.609Z,63.35
2019-05-25T07:58:26.135Z,63.06
2019-05-25T07:59:26.145Z,63.35
2019-05-25T08:00:26.127Z,63.15
2019-05-25T08:01:26.141Z,62.72
2019-05-25T08:02:26.087Z,62.62
2019-05-25T08:03:26.076Z,62.01
2019-05-25T08:04:26.075Z,61.91
2019-05-25T08:05:26.059Z,61.71
2019-05-25T08:06:26.051Z,62.01
2019-05-25T08:07:26.034Z,62.01
2019-05-25T08:08:26.019Z,61.60
2019-05-25T08:09:26.009Z,62.11
2019-05-25T08:10:25.999Z,61.91
2019-05-25T08:11:25.987Z,61.91
2019-05-25T08:12:25.975Z,61.98
2019-05-25T08:13:26.018Z,61.98
2019-05-25T08:14:26.005Z,61.68
2019-05-25T08:15:26.006Z,61.88
2019-05-25T08:16:25.989Z,62.38
2019-05-25T08:17:25.919Z,61.98
2019-05-25T08:18:25.909Z,62.59
2019-05-25T08:19:25.891Z,61.37
2019-05-25T08:20:25.893Z,61.98
2019-05-25T08:21:25.869Z,61.47
2019-05-25T08:22:25.918Z,61.78
2019-05-25T08:23:25.862Z,61.44
2019-05-25T08:24:25.865Z,61.75
2019-05-25T08:25:25.835Z,61.95
2019-05-25T08:26:25.833Z,61.65
2019-05-25T08:27:25.799Z,61.65
2019-05-25T08:28:32.665Z,61.55
2019-05-25T08:29:26.798Z,61.24
2019-05-25T08:30:25.895Z,61.14
2019-05-25T08:31:25.767Z,61.95
2019-05-25T08:32:25.771Z,61.85
2019-05-25T08:33:25.736Z,61.65
2019-05-25T08:34:25.721Z,61.65
2019-05-25T08:35:25.713Z,62.15
2019-05-25T08:36:25.707Z,62.15
2019-05-25T08:37:25.713Z,61.85
2019-05-25T08:38:25.679Z,61.98
2019-05-25T08:39:25.671Z,62.79
2019-05-25T08:40:25.653Z,63.09
2019-05-25T08:41:25.643Z,63.20
2019-05-25T08:42:25.636Z,63.09
2019-05-25T08:43:25.643Z,63.02
2019-05-25T08:44:25.610Z,63.93
2019-05-25T08:45:26.203Z,63.20
2019-05-25T08:46:25.623Z,63.53
2019-05-25T08:47:25.593Z,63.60
2019-05-25T08:48:25.575Z,62.99
2019-05-25T08:49:25.551Z,61.44
2019-05-25T08:50:37.690Z,61.55
2019-05-25T08:51:26.529Z,61.32
2019-05-25T08:52:25.517Z,60.88
2019-05-25T08:53:39.990Z,59.47
2019-05-25T08:54:26.496Z,59.44
2019-05-25T08:55:25.484Z,59.74
2019-05-25T08:56:25.486Z,58.91
2019-05-25T08:57:25.471Z,57.89
2019-05-25T08:58:25.611Z,57.49
2019-05-25T08:59:25.521Z,57.59
2019-05-25T09:00:25.626Z,57.39
2019-05-25T09:01:25.419Z,56.58
2019-05-25T09:02:25.485Z,56.88
2019-05-25T09:03:25.517Z,57.69
2019-05-25T09:04:25.771Z,57.39
2019-05-25T09:05:25.405Z,57.09
2019-05-25T09:06:25.428Z,56.78
2019-05-25T09:07:25.602Z,58.20
2019-05-25T09:08:25.341Z,57.52
2019-05-25T09:09:25.454Z,57.52
2019-05-25T09:10:25.319Z,58.12
2019-05-25T09:11:25.317Z,58.33
2019-05-25T09:12:25.855Z,58.36
2019-05-25T09:13:25.283Z,58.02
2019-05-25T09:14:25.274Z,58.43
2019-05-25T09:15:25.286Z,59.03
2019-05-25T09:16:25.259Z,58.86
2019-05-25T09:17:25.241Z,58.96
2019-05-25T09:18:25.266Z,58.38
2019-05-25T09:19:25.215Z,59.29
2019-05-25T09:20:25.205Z,59.42
2019-05-25T09:21:25.193Z,59.49
2019-05-25T09:22:25.193Z,59.80
2019-05-25T09:23:25.177Z,60.30
2019-05-25T09:24:25.208Z,59.70
2019-05-25T09:25:25.145Z,59.47
2019-05-25T09:26:25.135Z,59.14
2019-05-25T09:27:25.247Z,58.43
2019-05-25T09:28:25.195Z,57.52
2019-05-25T09:29:25.097Z,57.18
2019-05-25T09:30:25.090Z,57.18
2019-05-25T09:31:25.077Z,58.02
2019-05-25T09:32:25.069Z,57.92
2019-05-25T09:33:25.067Z,58.60
2019-05-25T09:34:25.045Z,58.40
2019-05-25T09:35:25.033Z,58.50
2019-05-25T09:36:25.023Z,57.18
2019-05-25T09:37:25.117Z,56.18
2019-05-25T09:38:25.007Z,56.15
2019-05-25T09:39:25.011Z,56.15
2019-05-25T09:40:25.055Z,56.15
2019-05-25T09:41:24.991Z,56.45
2019-05-25T09:42:24.959Z,56.45
2019-05-25T09:43:24.942Z,57.16
2019-05-25T09:44:24.946Z,57.16
2019-05-25T09:45:24.920Z,55.54
2019-05-25T09:46:24.910Z,55.74
2019-05-25T09:47:24.903Z,55.85
2019-05-25T09:48:24.887Z,56.18
2019-05-25T09:49:24.941Z,56.27
2019-05-25T09:50:24.881Z,56.58
2019-05-25T09:51:24.853Z,56.56
2019-05-25T09:52:24.842Z,56.85
2019-05-25T09:53:24.832Z,56.15
2019-05-25T09:54:24.819Z,55.82
2019-05-25T09:55:24.811Z,55.41
2019-05-25T09:56:24.797Z,54.58
2019-05-25T09:57:24.835Z,54.48
2019-05-25T09:58:24.791Z,55.49
2019-05-25T09:59:24.781Z,54.46
2019-05-25T10:00:24.755Z,54.33
2019-05-25T10:01:24.754Z,54.13
2019-05-25T10:02:24.728Z,53.52
2019-05-25T10:03:24.715Z,53.02
2019-05-25T10:04:24.712Z,52.51
2019-05-25T10:05:24.694Z,51.81
2019-05-25T10:06:24.705Z,52.82
2019-05-25T10:07:24.687Z,51.81
2019-05-25T10:08:24.727Z,52.42
2019-05-25T10:09:24.648Z,52.11
2019-05-25T10:10:24.654Z,52.42
2019-05-25T10:11:24.628Z,52.51
2019-05-25T10:12:24.633Z,51.79
2019-05-25T10:13:24.641Z,52.72
2019-05-25T10:14:24.593Z,52.39
2019-05-25T10:15:24.579Z,52.69
2019-05-25T10:16:24.567Z,52.06
2019-05-25T10:17:24.576Z,50.85
2019-05-25T10:18:24.569Z,52.47
2019-05-25T10:19:24.548Z,51.34
2019-05-25T10:20:24.520Z,50.43
2019-05-25T10:21:25.419Z,50.23
2019-05-25T10:22:24.503Z,49.82
2019-05-25T10:23:24.603Z,50.35
2019-05-25T10:24:24.479Z,50.98
2019-05-25T10:25:24.466Z,51.16
2019-05-25T10:26:24.457Z,51.18
2019-05-25T10:27:24.465Z,50.88
2019-05-25T10:28:24.443Z,52.01
2019-05-25T10:29:36.750Z,52.82
2019-05-25T10:30:25.412Z,52.39
2019-05-25T10:31:24.400Z,52.39
2019-05-25T10:32:24.391Z,52.87
2019-05-25T10:33:24.379Z,53.17
2019-05-25T10:34:24.389Z,51.56
2019-05-25T10:35:24.353Z,50.96
2019-05-25T10:36:24.346Z,50.96
2019-05-25T10:37:24.336Z,51.34
2019-05-25T10:38:24.847Z,50.43
2019-05-25T10:39:24.329Z,50.20
2019-05-25T10:40:24.510Z,49.70
2019-05-25T10:41:24.292Z,50.51
2019-05-25T10:42:24.301Z,50.00
2019-05-25T10:43:24.265Z,50.31
2019-05-25T10:44:24.264Z,49.40
2019-05-25T10:45:24.254Z,50.81
2019-05-25T10:46:24.361Z,50.00
2019-05-25T10:47:24.276Z,50.20
2019-05-25T10:48:24.340Z,50.51
2019-05-25T10:49:24.200Z,50.28
2019-05-25T10:50:24.219Z,49.27
2019-05-25T10:51:24.181Z,48.77
2019-05-25T10:52:24.172Z,49.85
2019-05-25T10:53:24.173Z,49.25
2019-05-25T10:54:24.148Z,48.95
2019-05-25T10:55:24.137Z,48.44
2019-05-25T10:56:24.131Z,48.97
2019-05-25T10:57:24.162Z,48.97
2019-05-25T10:58:24.099Z,48.49
2019-05-25T10:59:24.093Z,48.92
2019-05-25T11:00:24.078Z,50.25
2019-05-25T11:01:24.069Z,50.15
2019-05-25T11:02:24.060Z,50.07
2019-05-25T11:03:24.061Z,51.18
2019-05-25T11:04:24.270Z,50.76
2019-05-25T11:05:24.024Z,50.15
2019-05-25T11:06:24.023Z,50.63
2019-05-25T11:07:24.039Z,50.20
2019-05-25T11:08:24.026Z,50.60
2019-05-25T11:09:23.981Z,48.77
2019-05-25T11:10:23.970Z,48.87
2019-05-25T11:11:24.018Z,48.35
2019-05-25T11:12:26.013Z,47.02
2019-05-25T11:13:23.938Z,47.12
2019-05-25T11:14:23.942Z,47.00
2019-05-25T11:15:23.914Z,47.09
2019-05-25T11:16:23.908Z,46.39
2019-05-25T11:17:23.931Z,47.07
2019-05-25T11:18:23.899Z,46.57
2019-05-25T11:19:24.517Z,46.37
2019-05-25T11:20:23.894Z,46.17
2019-05-25T11:21:23.845Z,46.37
2019-05-25T11:22:23.833Z,45.87
2019-05-25T11:23:23.842Z,45.57
2019-05-25T11:24:23.812Z,45.97
2019-05-25T11:25:23.805Z,46.87
2019-05-25T11:26:23.792Z,46.67
2019-05-25T11:27:23.782Z,46.87
2019-05-25T11:28:23.778Z,48.08
2019-05-25T11:29:23.759Z,47.17
2019-05-25T11:30:23.760Z,47.77
2019-05-25T11:31:23.808Z,46.77
2019-05-25T11:32:23.730Z,46.65
2019-05-25T11:33:23.713Z,46.95
2019-05-25T11:34:23.708Z,45.84
2019-05-25T11:35:23.707Z,46.37
2019-05-25T11:36:23.678Z,47.09
2019-05-25T11:37:23.666Z,46.49
2019-05-25T11:38:23.663Z,46.61
2019-05-25T11:39:23.642Z,47.64
2019-05-25T11:40:23.640Z,48.25
2019-05-25T11:41:23.640Z,48.75
2019-05-25T11:42:23.633Z,48.65
2019-05-25T11:43:23.601Z,48.17
2019-05-25T11:44:23.585Z,48.65
2019-05-25T11:45:23.584Z,48.05
2019-05-25T11:46:23.565Z,48.55
2019-05-25T11:47:23.564Z,48.44
2019-05-25T11:48:23.559Z,48.44
2019-05-25T11:49:23.537Z,48.55
2019-05-25T11:50:23.540Z,48.07
2019-05-25T11:51:23.546Z,48.05
2019-05-25T11:52:23.513Z,48.87
2019-05-25T11:53:23.502Z,48.47
2019-05-25T11:54:23.476Z,48.49
2019-05-25T11:55:23.465Z,48.49
2019-05-25T11:56:23.456Z,49.50
2019-05-25T11:57:23.447Z,49.10
2019-05-25T11:58:23.440Z,50.40
2019-05-25T11:59:23.432Z,48.90
2019-05-25T12:00:25.374Z,48.99
2019-05-25T12:01:23.402Z,48.90
2019-05-25T12:02:23.393Z,49.48
2019-05-25T12:03:23.425Z,48.97
2019-05-25T12:04:23.379Z,50.10
2019-05-25T12:05:23.397Z,48.90
2019-05-25T12:06:23.342Z,49.60
2019-05-25T12:07:23.352Z,49.10
2019-05-25T12:08:23.314Z,49.50
2019-05-25T12:09:23.314Z,49.70
2019-05-25T12:10:23.321Z,48.79
2019-05-25T12:11:23.287Z,48.79
2019-05-25T12:12:23.273Z,48.90
2019-05-25T12:13:23.270Z,50.23
2019-05-25T12:14:23.254Z,49.82
2019-05-25T12:15:23.254Z,50.20
2019-05-25T12:16:23.250Z,48.79
2019-05-25T12:17:23.220Z,49.70
2019-05-25T12:18:23.211Z,49.70
2019-05-25T12:19:23.199Z,50.31
2019-05-25T12:20:23.192Z,50.10
2019-05-25T12:21:23.190Z,49.10
2019-05-25T12:22:23.167Z,49.60
2019-05-25T12:23:23.152Z,50.00
2019-05-25T12:24:23.158Z,48.87
2019-05-25T12:25:23.132Z,48.77
2019-05-25T12:26:23.124Z,49.07
2019-05-25T12:27:23.129Z,48.77
2019-05-25T12:28:23.106Z,49.19
2019-05-25T12:29:23.093Z,49.50
2019-05-25T12:30:23.079Z,50.20
2019-05-25T12:31:23.069Z,49.93
2019-05-25T12:32:23.062Z,50.60
2019-05-25T12:33:23.059Z,50.43
2019-05-25T12:34:23.037Z,50.10
2019-05-25T12:35:23.028Z,50.23
2019-05-25T12:36:23.018Z,50.02
2019-05-25T12:37:23.002Z,50.93
2019-05-25T12:38:22.998Z,51.14
2019-05-25T12:39:26.460Z,51.86
2019-05-25T12:40:22.973Z,52.17
2019-05-25T12:41:22.953Z,51.97
2019-05-25T12:42:22.941Z,51.79
2019-05-25T12:43:22.936Z,52.69
2019-05-25T12:44:22.938Z,52.69
2019-05-25T12:45:22.909Z,52.47
2019-05-25T12:46:22.903Z,52.77
2019-05-25T12:47:22.888Z,51.16
2019-05-25T12:48:22.878Z,51.54
2019-05-25T12:49:22.875Z,51.11
2019-05-25T12:50:22.872Z,51.11
2019-05-25T12:51:22.847Z,50.91
2019-05-25T12:52:22.833Z,50.71